createdAt,value
2018-11-26T16:21:02.025Z,79.10
2018-11-26T16:23:30.878Z,79.40
2018-11-26T16:25:59.694Z,79.40
2018-11-26T16:28:28.569Z,79.40
2018-11-26T16:31:01.038Z,79.20
2018-11-26T16:33:30.904Z,78.70
2018-11-26T16:35:59.775Z,78.70
2018-11-26T16:38:28.642Z,79.00
2018-11-26T16:41:10.102Z,79.00
2018-11-26T16:43:39.129Z,79.00
2018-11-26T16:46:07.972Z,79.50
2018-11-26T16:48:36.742Z,79.50
2018-11-26T16:51:05.650Z,79.60
2018-11-26T16:53:34.614Z,80.00
2018-11-26T16:56:04.619Z,80.30
2018-11-26T16:58:34.502Z,79.60
2018-11-26T17:01:05.091Z,80.00
2018-11-26T17:03:38.060Z,80.20
2018-11-26T17:06:10.554Z,80.00
2018-11-26T17:08:39.691Z,80.00
2018-11-26T17:11:08.554Z,80.80
2018-11-26T17:13:38.953Z,80.80
2018-11-26T17:16:09.047Z,80.10
2018-11-26T17:18:39.078Z,80.80
2018-11-26T17:21:07.986Z,80.80
2018-11-26T17:23:36.963Z,82.00
2018-11-26T17:26:05.998Z,81.10
2018-11-26T17:28:34.788Z,81.40
2018-11-26T17:31:03.582Z,81.20
2018-11-26T17:33:32.398Z,81.00
2018-11-26T17:36:01.274Z,81.00
2018-11-26T17:38:30.135Z,81.10
2018-11-26T17:40:58.976Z,81.10
2018-11-26T17:43:28.310Z,81.30
2018-11-26T17:45:57.210Z,81.10
2018-11-26T17:48:26.111Z,81.10
2018-11-26T17:50:54.901Z,81.20
2018-11-26T17:53:23.684Z,80.80
2018-11-26T17:55:55.365Z,81.40
2018-11-26T17:58:26.557Z,81.10
2018-11-26T18:01:00.541Z,81.00
2018-11-26T18:03:29.399Z,81.10
2018-11-26T18:05:58.354Z,80.60
2018-11-26T18:08:27.349Z,80.40
2018-11-26T18:10:56.190Z,80.20
2018-11-26T18:13:25.149Z,80.00
2018-11-26T18:15:53.999Z,79.90
2018-11-26T18:18:23.900Z,79.90
2018-11-26T18:20:51.582Z,79.40
2018-11-26T18:23:20.567Z,79.70
2018-11-26T18:25:49.333Z,79.60
2018-11-26T18:28:18.599Z,79.10
2018-11-26T18:30:49.753Z,79.70
2018-11-26T18:33:18.844Z,79.60
2018-11-26T18:35:48.396Z,79.80
2018-11-26T18:38:17.537Z,79.00
2018-11-26T18:40:50.142Z,79.70
2018-11-26T18:43:19.080Z,79.10
2018-11-26T18:45:47.879Z,79.30
2018-11-26T18:48:16.853Z,79.40
2018-11-26T18:50:45.691Z,79.40
2018-11-26T18:53:14.625Z,79.30
2018-11-26T18:55:43.709Z,79.30
2018-11-26T18:58:12.542Z,79.40
2018-11-26T19:00:47.904Z,79.40
2018-11-26T19:03:19.363Z,79.20
2018-11-26T19:05:50.146Z,79.40
2018-11-26T19:08:19.129Z,79.80
2018-11-26T19:10:49.106Z,79.70
2018-11-26T19:13:22.724Z,80.00
2018-11-26T19:15:52.861Z,79.50
2018-11-26T19:18:23.613Z,79.60
2018-11-26T19:20:52.686Z,79.60
2018-11-26T19:23:21.866Z,79.90
2018-11-26T19:25:52.324Z,79.60
2018-11-26T19:28:21.311Z,79.80
2018-11-26T19:30:50.314Z,79.70
2018-11-26T19:33:19.174Z,79.60
2018-11-26T19:35:47.987Z,80.10
2018-11-26T19:38:16.853Z,79.50
2018-11-26T19:40:45.854Z,79.20
2018-11-26T19:43:14.786Z,79.70
2018-11-26T19:45:43.828Z,79.30
2018-11-26T19:48:12.727Z,78.90
2018-11-26T19:50:41.945Z,79.20
2018-11-26T19:53:11.838Z,79.10
2018-11-26T19:55:42.005Z,79.40
2018-11-26T19:58:11.067Z,79.20
2018-11-26T20:00:40.201Z,79.50
2018-11-26T20:03:16.300Z,79.60
2018-11-26T20:05:50.650Z,79.30
2018-11-26T20:08:19.629Z,79.30
2018-11-26T20:10:48.583Z,79.80
2018-11-26T20:13:18.196Z,80.20
2018-11-26T20:15:47.218Z,79.90
2018-11-26T20:18:16.126Z,80.20
2018-11-26T20:20:45.031Z,80.40
2018-11-26T20:23:13.917Z,80.80
2018-11-26T20:25:42.916Z,80.40
2018-11-26T20:28:11.898Z,80.40
2018-11-26T20:30:40.870Z,80.50
2018-11-26T20:33:09.855Z,80.30
2018-11-26T20:35:38.849Z,80.40
2018-11-26T20:38:08.999Z,79.90
2018-11-26T20:40:37.970Z,79.80
2018-11-26T20:43:09.037Z,80.00
2018-11-26T20:45:38.894Z,80.30
2018-11-26T20:48:08.486Z,80.00
2018-11-26T20:50:37.532Z,80.00
2018-11-26T20:53:06.771Z,80.00
2018-11-26T20:55:35.677Z,80.10
2018-11-26T20:58:04.493Z,80.10
2018-11-26T21:00:33.277Z,79.90
2018-11-26T21:03:07.586Z,79.60
2018-11-26T21:05:36.534Z,79.30
2018-11-26T21:08:05.615Z,79.30
2018-11-26T21:10:34.642Z,79.20
2018-11-26T21:13:03.481Z,79.10
2018-11-26T21:15:32.491Z,79.30
2018-11-26T21:18:03.561Z,79.50
2018-11-26T21:20:37.319Z,79.60
2018-11-26T21:23:08.761Z,80.00
2018-11-26T21:25:38.147Z,79.80
2018-11-26T21:28:07.305Z,80.20
2018-11-26T21:30:36.422Z,80.40
2018-11-26T21:33:06.450Z,80.50
2018-11-26T21:35:36.099Z,80.60
2018-11-26T21:38:05.807Z,81.00
2018-11-26T21:40:35.634Z,80.80
2018-11-26T21:43:04.485Z,81.20
2018-11-26T21:45:41.751Z,81.70
2018-11-26T21:48:10.684Z,81.40
2018-11-26T21:50:39.618Z,81.30
2018-11-26T21:53:08.653Z,81.60
2018-11-26T21:55:37.537Z,81.20
2018-11-26T21:58:07.650Z,80.90
2018-11-26T22:00:36.927Z,80.60
2018-11-26T22:03:08.734Z,80.30
2018-11-26T22:05:39.337Z,80.10
2018-11-26T22:08:09.205Z,80.40
2018-11-26T22:10:39.038Z,80.40
2018-11-26T22:13:09.432Z,80.10
2018-11-26T22:15:38.258Z,80.10
2018-11-26T22:18:07.618Z,80.10
2018-11-26T22:20:36.374Z,79.90
2018-11-26T22:23:05.384Z,79.70
2018-11-26T22:25:34.057Z,79.70
2018-11-26T22:28:03.797Z,79.50
2018-11-26T22:30:33.381Z,79.20
2018-11-26T22:33:02.078Z,78.80
2018-11-26T22:35:30.745Z,79.30
2018-11-26T22:37:59.580Z,78.90
2018-11-26T22:40:28.197Z,78.30
2018-11-26T22:42:56.880Z,77.40
2018-11-26T22:45:35.086Z,76.80
2018-11-26T22:48:09.146Z,75.50
2018-11-26T22:50:39.158Z,76.10
2018-11-26T22:53:08.892Z,75.90
2018-11-26T22:55:37.714Z,76.60
2018-11-26T22:58:08.086Z,74.90
2018-11-26T23:00:42.422Z,75.40
2018-11-26T23:03:13.055Z,75.30
2018-11-26T23:05:42.180Z,74.40
2018-11-26T23:08:11.025Z,74.10
2018-11-26T23:10:39.916Z,74.40
2018-11-26T23:13:09.432Z,74.20
2018-11-26T23:15:38.877Z,73.50
2018-11-26T23:18:07.691Z,73.60
2018-11-26T23:20:36.475Z,74.00
2018-11-26T23:23:05.660Z,73.60
2018-11-26T23:25:34.550Z,73.40
2018-11-26T23:28:03.414Z,73.50
2018-11-26T23:30:32.577Z,73.70
2018-11-26T23:33:03.249Z,73.70
2018-11-26T23:35:32.318Z,72.20
2018-11-26T23:38:01.168Z,72.60
2018-11-26T23:40:31.161Z,72.50
2018-11-26T23:42:59.902Z,71.90
2018-11-26T23:45:29.185Z,71.90
2018-11-26T23:47:57.836Z,72.10
2018-11-26T23:50:26.438Z,73.10
2018-11-26T23:52:55.482Z,72.20
2018-11-26T23:55:24.813Z,71.80
2018-11-26T23:57:53.633Z,71.70
